Time;durP1;ratioP1;P1;durP2;ratioP2;P2;SDS_P1;SDS_P2;PMS_P1;PMS_P2;Temp;Humidity;BMP_temperature;BMP_pressure;BME280_temperature;BME280_humidity;BME280_pressure;Samples;Min_cycle;Max_cycle;Signal;HPM_P1;HPM_P2
2022/05/03 00:01:57;;;;;;;2.57;1.70;;;5.90;99.90;;;;;;5011508;28;20221;-60
2022/05/03 00:04:32;;;;;;;2.50;1.67;;;5.90;99.90;;;;;;5023463;28;20562;-60
2022/05/03 00:07:18;;;;;;;4.20;2.20;;;6.00;99.90;;;;;;5013964;28;20209;-60
2022/05/03 00:09:53;;;;;;;3.23;1.90;;;6.20;99.90;;;;;;5015172;28;20740;-61
2022/05/03 00:12:29;;;;;;;3.30;1.70;;;6.30;99.90;;;;;;5020304;28;20192;-60
2022/05/03 00:14:59;;;;;;;1.50;1.40;;;6.40;99.90;;;;;;5005830;28;20201;-60
2022/05/03 00:17:27;;;;;;;2.13;1.90;;;6.50;99.90;;;;;;5031324;28;20204;-60
2022/05/03 00:19:54;;;;;;;1.60;1.50;;;6.50;99.90;;;;;;5031781;28;20651;-60
2022/05/03 00:22:22;;;;;;;10.37;1.77;;;6.50;99.90;;;;;;5003874;28;21065;-60
2022/05/03 00:24:54;;;;;;;3.03;1.13;;;6.20;99.90;;;;;;5014594;28;20216;-60
2022/05/03 00:27:24;;;;;;;1.80;1.30;;;6.00;99.90;;;;;;5019142;28;20203;-61
2022/05/03 00:29:52;;;;;;;1.27;1.17;;;6.00;99.90;;;;;;5015612;28;20208;-61
2022/05/03 00:32:21;;;;;;;3.37;1.40;;;5.90;99.90;;;;;;5027273;28;20553;-61
2022/05/03 00:34:49;;;;;;;1.50;1.40;;;5.90;99.90;;;;;;5031172;28;20642;-60
2022/05/03 00:37:16;;;;;;;1.40;1.30;;;5.90;99.90;;;;;;5020103;28;20212;-60
2022/05/03 00:39:43;;;;;;;1.80;1.40;;;5.80;99.90;;;;;;5004999;28;20688;-60
2022/05/03 00:42:18;;;;;;;2.40;1.50;;;5.70;99.90;;;;;;5033375;28;20222;-60
2022/05/03 00:44:56;;;;;;;3.70;1.73;;;5.50;99.90;;;;;;5023544;28;20207;-60
2022/05/03 00:47:43;;;;;;;1.63;1.50;;;5.30;99.90;;;;;;5013324;28;20203;-60
2022/05/03 00:50:16;;;;;;;1.50;1.40;;;5.30;99.90;;;;;;5026895;28;20209;-60
2022/05/03 00:52:48;;;;;;;1.60;1.50;;;5.30;99.90;;;;;;5011023;28;20890;-60
2022/05/03 00:55:38;;;;;;;1.57;1.47;;;5.40;99.90;;;;;;5012344;28;20212;-60
2022/05/03 00:58:13;;;;;;;2.00;1.70;;;5.30;99.90;;;;;;5021314;28;20202;-61
2022/05/03 01:00:56;;;;;;;2.27;1.83;;;5.30;99.90;;;;;;4999877;28;20209;-61
2022/05/03 01:03:27;;;;;;;4.10;1.57;;;5.30;99.90;;;;;;5032053;28;20849;-62
2022/05/03 01:06:08;;;;;;;2.00;1.67;;;5.40;99.90;;;;;;5017554;28;20200;-60
2022/05/03 01:08:45;;;;;;;2.57;1.20;;;5.40;99.90;;;;;;5003048;28;20229;-60
2022/05/03 01:11:28;;;;;;;1.57;1.40;;;5.40;99.90;;;;;;5010372;28;20213;-60
2022/05/03 01:14:05;;;;;;;2.40;1.73;;;5.40;99.90;;;;;;5006406;28;20924;-60
2022/05/03 01:16:38;;;;;;;4.93;1.90;;;5.50;99.90;;;;;;5021110;28;20198;-60
2022/05/03 01:19:17;;;;;;;2.07;1.90;;;5.60;99.90;;;;;;5024762;28;20706;-60
2022/05/03 01:22:07;;;;;;;2.23;1.87;;;5.60;99.90;;;;;;5017276;28;20227;-60
2022/05/03 01:24:54;;;;;;;2.87;1.90;;;5.70;99.90;;;;;;5020042;28;20947;-60
2022/05/03 01:27:44;;;;;;;3.00;2.10;;;5.70;99.90;;;;;;5016426;28;20201;-60
2022/05/03 01:30:13;;;;;;;4.50;2.23;;;5.70;99.90;;;;;;5002202;28;20206;-60
2022/05/03 01:32:44;;;;;;;4.40;2.00;;;5.70;99.90;;;;;;5004641;28;20211;-60
2022/05/03 01:35:13;;;;;;;2.33;2.10;;;5.60;99.90;;;;;;5030320;28;20193;-60
2022/05/03 01:38:11;;;;;;;2.30;2.10;;;5.60;99.90;;;;;;5017712;28;20213;-60
2022/05/03 01:40:54;;;;;;;2.93;2.37;;;5.50;99.90;;;;;;4999043;28;20423;-60
2022/05/03 01:43:32;;;;;;;3.43;3.00;;;5.50;99.90;;;;;;5031166;28;20367;-60
2022/05/03 01:46:06;;;;;;;4.67;3.30;;;5.70;99.90;;;;;;5018624;28;20860;-60
2022/05/03 01:51:46;;;;;;;5.13;3.07;;;5.80;99.90;;;;;;5016943;28;21481;-60
2022/05/03 01:54:35;;;;;;;3.97;3.50;;;5.90;99.90;;;;;;5029503;28;20667;-60
2022/05/03 01:57:11;;;;;;;4.30;3.37;;;6.00;99.90;;;;;;5008620;28;20214;-60
2022/05/03 01:59:56;;;;;;;4.47;3.53;;;5.90;99.90;;;;;;5016045;28;20205;-60
2022/05/03 02:02:38;;;;;;;4.77;4.17;;;5.80;99.90;;;;;;5017109;28;20233;-60
2022/05/03 02:05:07;;;;;;;4.37;3.53;;;5.80;99.90;;;;;;5029912;28;20193;-60
2022/05/03 02:07:53;;;;;;;6.50;4.17;;;5.80;99.90;;;;;;5014601;28;20210;-60
2022/05/03 02:10:38;;;;;;;4.50;3.70;;;5.80;99.90;;;;;;5023764;28;20247;-60
2022/05/03 02:13:17;;;;;;;4.03;3.30;;;5.80;99.90;;;;;;5008568;28;21207;-60
2022/05/03 02:15:49;;;;;;;3.00;2.27;;;5.80;99.90;;;;;;5012597;28;20278;-60
2022/05/03 02:18:27;;;;;;;2.63;1.87;;;5.50;99.90;;;;;;5026097;28;20202;-60
2022/05/03 02:21:16;;;;;;;2.27;1.97;;;5.10;99.90;;;;;;5021667;28;20842;-60
2022/05/03 02:23:59;;;;;;;2.70;2.50;;;5.20;99.90;;;;;;4999675;28;20233;-60
2022/05/03 02:26:37;;;;;;;4.67;2.30;;;5.10;99.90;;;;;;5017058;28;20205;-60
2022/05/03 02:29:07;;;;;;;2.20;2.00;;;5.20;99.90;;;;;;4995612;28;21129;-61
2022/05/03 02:31:43;;;;;;;3.37;2.43;;;5.20;99.90;;;;;;5023278;28;21116;-60
2022/05/03 02:34:25;;;;;;;2.10;1.90;;;5.00;99.90;;;;;;5028292;28;20874;-60
2022/05/03 02:36:59;;;;;;;3.63;2.60;;;4.80;99.90;;;;;;5026596;28;20255;-60
2022/05/03 02:39:31;;;;;;;4.80;2.33;;;4.90;99.90;;;;;;5014989;28;20195;-60
2022/05/03 02:42:02;;;;;;;4.37;2.70;;;5.00;99.90;;;;;;5029313;28;20199;-64
2022/05/03 02:44:30;;;;;;;3.23;2.40;;;5.10;99.90;;;;;;4997318;28;20257;-60
2022/05/03 02:47:04;;;;;;;3.27;2.80;;;5.10;99.90;;;;;;5028380;28;20194;-60
2022/05/03 02:53:02;;;;;;;7.60;2.23;;;4.90;99.90;;;;;;4969172;28;20310;-60
2022/05/03 02:55:38;;;;;;;3.23;2.47;;;4.60;99.90;;;;;;5017497;28;20201;-60
2022/05/03 02:58:07;;;;;;;2.77;2.53;;;4.50;99.90;;;;;;5027682;28;20203;-60
2022/05/03 03:03:50;;;;;;;4.33;3.20;;;4.80;99.90;;;;;;5023206;28;20265;-60
2022/05/03 03:06:22;;;;;;;5.00;3.53;;;4.90;99.90;;;;;;4998645;28;20210;-60
2022/05/03 03:08:53;;;;;;;3.70;3.27;;;4.90;99.90;;;;;;5010614;28;20228;-60
2022/05/03 03:11:31;;;;;;;3.60;3.27;;;5.00;99.90;;;;;;5016679;28;20210;-60
2022/05/03 03:14:09;;;;;;;4.60;3.70;;;5.00;99.90;;;;;;5005059;28;20215;-61
2022/05/03 03:16:44;;;;;;;4.83;3.83;;;5.10;99.90;;;;;;5026067;28;20647;-60
2022/05/03 03:19:45;;;;;;;5.47;4.07;;;5.00;99.90;;;;;;5017648;28;20212;-60
2022/05/03 03:22:14;;;;;;;5.37;3.60;;;5.10;99.90;;;;;;4999646;28;20601;-61
2022/05/03 03:24:43;;;;;;;4.50;3.70;;;5.20;99.90;;;;;;5014152;28;21223;-60
2022/05/03 03:27:11;;;;;;;4.97;4.17;;;5.20;99.90;;;;;;5011674;28;20216;-60
2022/05/03 03:29:40;;;;;;;4.40;4.00;;;5.30;99.90;;;;;;4997796;28;20247;-60
2022/05/03 03:32:09;;;;;;;7.40;4.33;;;5.40;99.90;;;;;;5023584;28;20200;-60
2022/05/03 03:34:37;;;;;;;5.20;4.37;;;5.40;99.90;;;;;;5016190;28;20210;-60
2022/05/03 03:37:07;;;;;;;5.40;4.33;;;5.50;99.90;;;;;;5011523;28;20206;-60
2022/05/03 03:39:35;;;;;;;6.63;4.57;;;5.50;99.90;;;;;;5015397;28;20674;-60
2022/05/03 03:42:06;;;;;;;12.37;5.20;;;5.60;99.90;;;;;;5011935;28;20604;-60
2022/05/03 03:44:33;;;;;;;6.33;4.87;;;5.60;99.90;;;;;;5015122;28;20203;-60
2022/05/03 03:47:01;;;;;;;7.13;5.30;;;5.60;99.90;;;;;;4997894;28;20210;-61
2022/05/03 03:49:29;;;;;;;6.20;4.50;;;5.60;99.90;;;;;;5014169;28;20205;-60
2022/05/03 03:51:57;;;;;;;6.90;4.90;;;5.60;99.90;;;;;;5009681;28;24737;-60
2022/05/03 03:54:25;;;;;;;5.60;4.90;;;5.70;99.90;;;;;;5024245;28;20194;-60
2022/05/03 03:56:54;;;;;;;7.30;4.40;;;5.70;99.90;;;;;;5016586;28;20710;-60
2022/05/03 03:59:22;;;;;;;4.53;3.80;;;5.70;99.90;;;;;;5017569;28;20201;-60
2022/05/03 04:01:50;;;;;;;4.87;3.93;;;5.60;99.90;;;;;;4997405;28;20323;-60
2022/05/03 04:04:18;;;;;;;5.90;3.10;;;5.50;99.90;;;;;;5028555;28;20229;-60
2022/05/03 04:06:45;;;;;;;3.47;2.90;;;5.30;99.90;;;;;;5014983;28;20212;-61
2022/05/03 04:09:12;;;;;;;4.00;3.43;;;5.20;99.90;;;;;;5018856;28;20324;-60
2022/05/03 04:11:46;;;;;;;4.17;3.40;;;5.20;99.90;;;;;;5021551;28;20193;-60
2022/05/03 04:14:13;;;;;;;4.53;3.27;;;5.10;99.90;;;;;;5024711;28;20205;-60
2022/05/03 04:16:42;;;;;;;4.07;3.30;;;5.20;99.90;;;;;;5000570;28;20270;-61
2022/05/03 04:19:12;;;;;;;7.50;3.87;;;5.20;99.90;;;;;;5012659;28;20211;-60
2022/05/03 04:21:39;;;;;;;4.33;3.93;;;5.30;99.90;;;;;;5002271;28;20637;-60
2022/05/03 04:24:07;;;;;;;6.43;4.10;;;5.40;99.90;;;;;;5015982;28;20233;-59
2022/05/03 04:26:37;;;;;;;5.33;3.87;;;5.50;99.90;;;;;;4998759;28;20208;-60
2022/05/03 04:29:04;;;;;;;5.33;4.13;;;5.50;99.90;;;;;;5030574;28;20610;-60
2022/05/03 04:31:33;;;;;;;5.87;4.10;;;5.50;99.90;;;;;;5003249;28;20217;-60
2022/05/03 04:34:03;;;;;;;4.57;3.83;;;5.60;99.90;;;;;;5012979;28;20589;-60
2022/05/03 04:36:32;;;;;;;5.70;4.37;;;5.60;99.90;;;;;;5001047;28;20217;-60
2022/05/03 04:39:00;;;;;;;5.20;4.20;;;5.60;99.90;;;;;;5030269;28;20213;-60
2022/05/03 04:41:27;;;;;;;9.07;4.87;;;5.70;99.90;;;;;;4989863;28;20318;-60
2022/05/03 04:43:54;;;;;;;5.77;5.07;;;5.70;99.90;;;;;;5031994;28;20228;-60
2022/05/03 04:46:22;;;;;;;7.43;5.70;;;5.80;99.90;;;;;;4998491;28;20911;-61
2022/05/03 04:48:48;;;;;;;7.97;5.63;;;5.80;99.90;;;;;;5009140;28;20208;-60
2022/05/03 04:51:21;;;;;;;8.17;6.00;;;5.90;99.90;;;;;;5021983;28;20229;-60
2022/05/03 04:53:48;;;;;;;9.77;5.93;;;6.10;99.90;;;;;;5037677;28;20189;-61
2022/05/03 04:56:19;;;;;;;7.20;5.47;;;6.10;99.90;;;;;;5024524;28;20214;-60
2022/05/03 04:58:49;;;;;;;8.70;5.80;;;6.20;99.90;;;;;;5031000;28;20221;-58
2022/05/03 05:01:17;;;;;;;10.70;6.53;;;6.30;99.90;;;;;;5026150;28;20213;-61
2022/05/03 05:03:45;;;;;;;8.40;6.50;;;6.40;99.90;;;;;;5051229;28;21369;-58
2022/05/03 05:06:13;;;;;;;7.80;6.33;;;6.50;99.90;;;;;;5019685;28;20610;-59
2022/05/03 05:08:44;;;;;;;7.40;6.30;;;6.60;99.90;;;;;;5018643;28;20219;-59
2022/05/03 05:11:11;;;;;;;7.20;5.90;;;6.80;99.90;;;;;;5011368;28;20235;-59
2022/05/03 05:13:40;;;;;;;10.17;7.30;;;6.90;99.90;;;;;;5020908;28;20208;-59
2022/05/03 05:16:08;;;;;;;9.07;6.40;;;7.00;99.90;;;;;;5017269;28;20209;-59
2022/05/03 05:18:35;;;;;;;8.20;6.37;;;7.10;99.90;;;;;;5002627;28;20221;-59
2022/05/03 05:21:03;;;;;;;9.03;6.00;;;7.20;99.90;;;;;;5007993;28;20218;-60
2022/05/03 05:23:30;;;;;;;11.50;6.63;;;7.20;99.90;;;;;;5002439;28;21353;-60
2022/05/03 05:25:58;;;;;;;14.87;6.90;;;7.30;99.90;;;;;;4996449;28;20233;-60
2022/05/03 05:28:26;;;;;;;12.00;6.90;;;7.30;99.90;;;;;;5017077;28;20220;-60
2022/05/03 05:30:54;;;;;;;13.97;7.73;;;7.40;99.90;;;;;;5020443;28;20573;-60
2022/05/03 05:33:21;;;;;;;10.00;7.17;;;7.40;99.90;;;;;;5011816;28;20230;-59
2022/05/03 05:35:48;;;;;;;9.00;7.07;;;7.50;99.90;;;;;;5020443;28;20223;-60
2022/05/03 05:38:17;;;;;;;12.40;8.37;;;7.60;99.90;;;;;;5022501;28;20888;-60
2022/05/03 05:40:46;;;;;;;13.23;8.83;;;7.70;99.90;;;;;;5003074;28;20208;-60
2022/05/03 05:43:14;;;;;;;10.40;7.70;;;7.80;99.90;;;;;;5027337;28;20214;-60
2022/05/03 05:45:41;;;;;;;10.60;8.10;;;7.90;99.90;;;;;;5003960;28;20252;-59
2022/05/03 05:48:09;;;;;;;12.53;8.90;;;8.00;99.90;;;;;;5013530;28;20225;-60
2022/05/03 05:50:36;;;;;;;11.73;7.87;;;8.00;99.90;;;;;;5031638;28;20205;-60
2022/05/03 05:55:48;;;;;;;14.97;9.10;;;8.10;99.90;;;;;;5018387;28;20854;-61
2022/05/03 05:58:16;;;;;;;12.23;9.37;;;8.20;99.90;;;;;;5036898;28;20212;-60
2022/05/03 06:00:43;;;;;;;15.23;11.03;;;8.20;99.90;;;;;;5000758;28;20228;-60
2022/05/03 06:03:11;;;;;;;12.80;9.50;;;8.40;99.90;;;;;;5008358;28;20225;-60
2022/05/03 06:05:38;;;;;;;11.80;9.93;;;8.40;99.90;;;;;;5027086;28;20208;-60
2022/05/03 06:08:06;;;;;;;18.30;10.73;;;8.50;99.90;;;;;;5017234;28;20308;-60
2022/05/03 06:10:33;;;;;;;16.47;10.90;;;8.50;99.90;;;;;;5004301;28;20838;-60
2022/05/03 06:13:00;;;;;;;15.47;10.83;;;8.60;99.90;;;;;;4998247;28;20708;-60
2022/05/03 06:15:28;;;;;;;18.93;12.03;;;8.60;99.90;;;;;;5017897;28;20296;-60
2022/05/03 06:17:55;;;;;;;18.23;12.33;;;8.80;99.90;;;;;;5024628;28;20960;-59
2022/05/03 06:20:22;;;;;;;18.40;11.73;;;8.80;99.90;;;;;;5014401;28;20205;-59
2022/05/03 06:22:49;;;;;;;16.90;12.13;;;8.90;99.90;;;;;;5031441;28;20205;-60
2022/05/03 06:25:16;;;;;;;22.57;13.77;;;8.90;99.90;;;;;;5026386;28;20245;-60
2022/05/03 06:27:43;;;;;;;23.83;14.50;;;9.00;99.90;;;;;;4993444;28;20208;-61
2022/05/03 06:30:11;;;;;;;19.97;13.80;;;9.10;99.90;;;;;;5021840;28;20259;-60
2022/05/03 06:32:43;;;;;;;20.00;13.80;;;9.10;99.90;;;;;;5005767;28;20237;-60
2022/05/03 06:35:11;;;;;;;23.63;14.40;;;9.20;99.90;;;;;;5009858;28;20244;-61
2022/05/03 06:37:39;;;;;;;23.70;14.77;;;9.30;99.90;;;;;;5024829;28;20293;-60
2022/05/03 06:40:08;;;;;;;24.53;15.07;;;9.30;99.90;;;;;;5028883;28;20251;-60
2022/05/03 06:42:37;;;;;;;20.87;14.07;;;9.30;99.90;;;;;;5010627;28;20228;-61
2022/05/03 06:45:04;;;;;;;23.17;13.70;;;9.40;99.90;;;;;;5020306;28;20992;-61
2022/05/03 06:47:31;;;;;;;19.53;13.10;;;9.40;99.90;;;;;;5021439;28;20202;-61
2022/05/03 06:50:00;;;;;;;20.27;12.90;;;9.40;99.90;;;;;;5003581;28;20217;-61
2022/05/03 06:52:27;;;;;;;21.70;13.67;;;9.40;99.90;;;;;;5027801;28;20675;-61
2022/05/03 06:54:54;;;;;;;23.70;14.47;;;9.40;99.90;;;;;;5030109;28;20304;-61
2022/05/03 06:57:21;;;;;;;27.20;15.20;;;9.40;99.90;;;;;;5033459;28;20955;-62
2022/05/03 06:59:49;;;;;;;23.80;16.00;;;9.50;99.90;;;;;;5006263;28;20219;-61
2022/05/03 07:02:16;;;;;;;24.07;16.27;;;9.60;99.90;;;;;;4999154;28;20221;-61
2022/05/03 07:04:43;;;;;;;25.17;16.10;;;9.60;99.90;;;;;;5024874;28;20287;-61
2022/05/03 07:07:14;;;;;;;25.07;16.20;;;9.60;99.90;;;;;;4999271;28;20216;-61
2022/05/03 07:09:42;;;;;;;29.73;17.23;;;9.70;99.90;;;;;;5025289;28;20255;-61
2022/05/03 07:12:10;;;;;;;27.90;17.70;;;9.70;99.90;;;;;;5025067;28;20197;-61
2022/05/03 07:14:37;;;;;;;23.83;17.13;;;9.80;99.90;;;;;;5005970;28;20296;-60
2022/05/03 07:17:04;;;;;;;24.27;16.10;;;9.80;99.90;;;;;;5009148;28;20713;-61
2022/05/03 07:25:02;;;;;;;30.33;17.90;;;9.80;99.90;;;;;;5029561;28;20232;-61
2022/05/03 07:27:29;;;;;;;33.23;18.23;;;9.90;99.90;;;;;;5029094;28;20201;-61
2022/05/03 07:29:56;;;;;;;31.57;17.23;;;9.90;99.90;;;;;;5010431;28;20229;-61
2022/05/03 07:32:23;;;;;;;24.83;15.77;;;9.90;99.90;;;;;;5011570;28;20528;-62
2022/05/03 07:34:50;;;;;;;22.43;10.50;;;10.00;99.90;;;;;;5032763;28;20296;-61
2022/05/03 07:37:18;;;;;;;23.13;10.87;;;10.10;99.90;;;;;;4999376;28;20214;-61
2022/05/03 07:39:45;;;;;;;14.67;6.57;;;10.20;99.90;;;;;;5036580;28;20296;-61
2022/05/03 07:42:12;;;;;;;20.53;5.07;;;10.20;99.90;;;;;;5032032;28;20225;-61
2022/05/03 07:44:39;;;;;;;17.80;5.20;;;10.20;99.90;;;;;;5025615;28;20851;-60
2022/05/03 07:47:06;;;;;;;18.27;4.80;;;10.20;99.90;;;;;;5012430;28;20582;-61
2022/05/03 07:49:34;;;;;;;19.40;5.00;;;10.20;99.90;;;;;;5036911;28;20297;-61
2022/05/03 07:52:01;;;;;;;18.90;4.70;;;10.10;99.90;;;;;;5023151;28;20197;-62
2022/05/03 07:54:29;;;;;;;17.87;5.07;;;10.10;99.90;;;;;;5020469;28;20225;-61
2022/05/03 07:56:56;;;;;;;19.17;5.20;;;10.10;99.90;;;;;;5029623;28;20194;-62
2022/05/03 07:59:25;;;;;;;19.63;4.70;;;10.10;99.90;;;;;;5029495;28;20228;-61
2022/05/03 08:01:52;;;;;;;14.13;4.87;;;10.10;99.90;;;;;;5011840;28;20221;-61
2022/05/03 08:04:19;;;;;;;16.73;4.70;;;10.10;99.90;;;;;;5019898;28;20252;-62
2022/05/03 08:06:46;;;;;;;17.17;4.33;;;10.10;99.90;;;;;;5018352;28;20205;-61
2022/05/03 08:09:13;;;;;;;24.37;4.53;;;10.10;99.90;;;;;;4994162;28;20229;-61
2022/05/03 08:11:42;;;;;;;18.80;4.63;;;10.10;99.90;;;;;;5032524;28;20222;-61
2022/05/03 08:14:09;;;;;;;13.97;3.90;;;10.10;99.90;;;;;;5014915;28;20666;-61
2022/05/03 08:16:38;;;;;;;12.60;4.87;;;10.10;99.90;;;;;;4994231;28;20209;-62
2022/05/03 08:19:05;;;;;;;18.10;4.37;;;10.20;99.90;;;;;;5017956;28;20212;-62
2022/05/03 08:21:35;;;;;;;19.67;4.20;;;10.30;99.90;;;;;;5029587;28;20202;-61
2022/05/03 08:24:02;;;;;;;14.83;4.07;;;10.10;99.90;;;;;;5007358;28;20248;-61
2022/05/03 08:26:30;;;;;;;22.13;4.50;;;10.10;99.90;;;;;;5030045;28;20706;-62
2022/05/03 08:28:59;;;;;;;11.50;3.80;;;10.10;99.90;;;;;;5034888;28;20210;-61
2022/05/03 08:31:26;;;;;;;13.53;4.00;;;10.20;99.90;;;;;;5016664;28;20232;-61
2022/05/03 08:33:53;;;;;;;19.23;4.17;;;10.20;99.90;;;;;;5029278;28;20228;-61
2022/05/03 08:36:21;;;;;;;14.20;3.60;;;10.20;99.90;;;;;;5022368;28;20242;-61
2022/05/03 08:44:19;;;;;;;11.63;3.30;;;10.20;99.90;;;;;;5032545;28;20231;-61
2022/05/03 08:46:47;;;;;;;18.10;4.23;;;10.20;99.90;;;;;;5031717;28;20212;-61
2022/05/03 08:49:17;;;;;;;14.97;3.80;;;10.30;99.90;;;;;;5023808;28;20281;-61
2022/05/03 08:51:45;;;;;;;9.20;3.27;;;10.30;99.90;;;;;;5009408;28;20272;-61
2022/05/03 08:54:12;;;;;;;12.83;3.17;;;10.20;99.90;;;;;;4999741;28;20592;-61
2022/05/03 08:56:40;;;;;;;13.13;3.63;;;10.10;99.90;;;;;;5020816;28;20205;-60
2022/05/03 08:59:08;;;;;;;8.37;2.97;;;10.10;99.90;;;;;;5019636;28;20206;-61
2022/05/03 09:01:36;;;;;;;7.80;2.50;;;10.20;99.90;;;;;;5022834;28;20221;-61
2022/05/03 09:04:03;;;;;;;10.57;3.47;;;10.10;99.90;;;;;;5020499;28;20226;-61
2022/05/03 09:06:42;;;;;;;14.50;3.27;;;10.10;99.90;;;;;;5030753;28;21610;-61
2022/05/03 09:09:11;;;;;;;11.13;3.63;;;10.10;99.90;;;;;;5007041;28;20423;-61
2022/05/03 09:11:45;;;;;;;13.03;3.40;;;10.20;99.90;;;;;;5017541;28;20209;-61
2022/05/03 09:14:13;;;;;;;11.10;3.50;;;10.30;99.90;;;;;;5030560;28;20201;-61
2022/05/03 09:16:50;;;;;;;13.67;3.40;;;10.30;99.90;;;;;;5029555;28;20430;-61
2022/05/03 09:19:25;;;;;;;9.10;3.03;;;10.20;99.90;;;;;;5012158;28;20225;-62
2022/05/03 09:24:53;;;;;;;7.50;2.70;;;10.20;99.90;;;;;;4958016;28;20764;-61
2022/05/03 09:27:21;;;;;;;13.33;3.37;;;10.20;99.90;;;;;;5023528;28;21023;-61
2022/05/03 09:30:06;;;;;;;13.67;3.10;;;10.30;99.90;;;;;;5032105;28;20198;-61
2022/05/03 09:32:42;;;;;;;8.30;2.30;;;10.40;99.90;;;;;;5031418;28;20204;-61
2022/05/03 09:35:31;;;;;;;11.03;2.50;;;10.50;99.90;;;;;;5004152;28;20666;-61
2022/05/03 09:37:59;;;;;;;10.50;3.50;;;10.40;99.90;;;;;;5023108;28;20202;-61
2022/05/03 09:40:26;;;;;;;14.53;3.40;;;10.40;99.90;;;;;;5005493;28;21028;-61
2022/05/03 09:42:54;;;;;;;9.10;2.37;;;10.40;99.90;;;;;;5022197;28;20201;-61
2022/05/03 09:45:23;;;;;;;19.23;3.70;;;10.40;99.90;;;;;;5021251;28;20221;-61
2022/05/03 09:47:53;;;;;;;8.77;2.47;;;10.40;99.90;;;;;;5022413;28;20631;-61
2022/05/03 09:50:28;;;;;;;7.67;2.80;;;10.50;99.90;;;;;;5009632;28;20678;-61
2022/05/03 09:52:55;;;;;;;11.10;3.33;;;10.60;99.90;;;;;;5029436;28;20193;-61
2022/05/03 09:55:31;;;;;;;9.77;2.33;;;10.50;99.90;;;;;;5000418;28;20209;-61
2022/05/03 09:58:01;;;;;;;13.13;3.40;;;10.60;99.90;;;;;;5028987;28;20209;-61
2022/05/03 10:00:28;;;;;;;13.77;3.03;;;10.70;99.90;;;;;;5023811;28;20607;-62
2022/05/03 10:02:56;;;;;;;10.13;2.57;;;10.80;99.90;;;;;;5022374;28;20200;-61
2022/05/03 10:05:25;;;;;;;7.93;2.57;;;10.80;99.90;;;;;;5013225;28;20228;-62
2022/05/03 10:07:52;;;;;;;13.63;3.03;;;10.90;99.90;;;;;;5027740;28;20232;-61
2022/05/03 10:10:20;;;;;;;8.83;2.63;;;10.90;99.90;;;;;;5000422;28;20209;-60
2022/05/03 10:12:49;;;;;;;14.40;3.03;;;11.00;99.90;;;;;;5031266;28;20232;-61
2022/05/03 10:21:03;;;;;;;8.57;2.37;;;10.80;99.90;;;;;;5026323;28;20196;-61
2022/05/03 10:23:32;;;;;;;9.13;2.70;;;10.80;99.90;;;;;;5036752;28;21479;-61
2022/05/03 10:26:01;;;;;;;8.50;2.67;;;10.80;99.90;;;;;;4996538;28;20352;-61
2022/05/03 10:29:07;;;;;;;6.13;1.93;;;10.70;99.90;;;;;;5021421;28;20197;-61
2022/05/03 10:31:53;;;;;;;5.80;2.50;;;10.70;99.90;;;;;;5003895;28;20209;-61
2022/05/03 10:34:48;;;;;;;4.60;2.10;;;10.80;99.90;;;;;;5028577;28;20389;-61
2022/05/03 10:37:16;;;;;;;6.35;2.00;;;10.90;99.90;;;;;;5008441;28;20690;-61
2022/05/03 10:39:51;;;;;;;3.47;1.47;;;11.10;99.90;;;;;;5021197;28;20204;-61
2022/05/03 10:42:18;;;;;;;7.23;1.97;;;11.20;99.90;;;;;;4993129;28;20208;-61
2022/05/03 10:44:47;;;;;;;10.93;2.83;;;11.20;99.90;;;;;;5008895;28;20271;-61
2022/05/03 10:47:20;;;;;;;7.25;1.90;;;11.10;99.90;;;;;;5015391;28;20211;-61
2022/05/03 10:50:26;;;;;;;4.70;2.03;;;11.10;99.90;;;;;;5023221;28;20212;-61
2022/05/03 10:53:22;;;;;;;9.70;2.53;;;11.20;99.90;;;;;;4994824;28;20204;-62
2022/05/03 10:56:08;;;;;;;8.70;2.60;;;11.20;99.90;;;;;;4995340;28;20719;-61
2022/05/03 10:58:36;;;;;;;6.57;1.83;;;11.20;99.90;;;;;;5006941;28;20209;-61
2022/05/03 11:01:09;;;;;;;6.20;1.80;;;11.20;99.90;;;;;;5007776;28;20570;-61
2022/05/03 11:03:37;;;;;;;10.07;2.30;;;11.20;99.90;;;;;;5021798;28;20208;-62
2022/05/03 11:06:44;;;;;;;12.13;3.13;;;11.10;99.90;;;;;;5015251;28;20233;-61
2022/05/03 11:09:15;;;;;;;7.53;2.17;;;11.10;99.90;;;;;;5009436;28;20236;-61
2022/05/03 11:12:08;;;;;;;17.27;2.77;;;11.20;99.90;;;;;;5021741;28;21152;-61
2022/05/03 11:14:55;;;;;;;9.03;2.17;;;11.10;99.90;;;;;;5004422;28;20213;-61
2022/05/03 11:17:23;;;;;;;8.53;1.90;;;11.00;99.90;;;;;;5019143;28;20262;-61
2022/05/03 11:20:00;;;;;;;8.33;2.30;;;11.10;99.90;;;;;;5020122;28;20843;-61
2022/05/03 11:22:37;;;;;;;7.93;2.60;;;11.20;99.90;;;;;;5007120;28;20656;-61
2022/05/03 11:25:07;;;;;;;5.97;2.53;;;11.30;99.90;;;;;;5026273;28;20335;-61
2022/05/03 11:27:35;;;;;;;7.22;2.45;;;11.40;99.90;;;;;;5006819;28;20220;-61
2022/05/03 11:30:05;;;;;;;5.00;2.23;;;11.30;99.90;;;;;;5032316;28;20208;-61
2022/05/03 11:32:37;;;;;;;13.02;2.55;;;11.30;99.90;;;;;;5006803;28;20221;-61
2022/05/03 11:35:06;;;;;;;10.82;2.33;;;11.30;99.90;;;;;;5019879;28;20252;-61
2022/05/03 11:37:35;;;;;;;5.88;2.38;;;11.50;99.90;;;;;;5011664;28;20231;-61
2022/05/03 11:40:09;;;;;;;8.98;2.38;;;11.50;99.90;;;;;;5023779;28;20221;-61
2022/05/03 11:42:44;;;;;;;10.40;2.17;;;11.50;99.90;;;;;;5029608;28;20284;-61
2022/05/03 11:45:13;;;;;;;13.27;2.30;;;11.50;99.90;;;;;;5014661;28;20308;-61
2022/05/03 11:47:42;;;;;;;8.75;2.25;;;11.60;99.90;;;;;;5017475;28;20205;-61
2022/05/03 11:50:12;;;;;;;6.63;2.08;;;11.70;99.90;;;;;;5015708;28;21143;-61
2022/05/03 11:58:12;;;;;;;5.40;2.30;;;11.80;99.90;;;;;;5025591;28;20200;-61
2022/05/03 12:00:50;;;;;;;5.20;2.47;;;11.90;99.90;;;;;;5013534;28;20216;-61
2022/05/03 12:03:17;;;;;;;7.75;2.95;;;12.00;99.90;;;;;;5014931;28;20197;-61
2022/05/03 12:06:02;;;;;;;9.82;2.40;;;12.00;99.90;;;;;;5026995;28;20237;-61
2022/05/03 12:08:30;;;;;;;15.07;3.03;;;12.10;99.90;;;;;;5012790;28;20749;-61
2022/05/03 12:10:58;;;;;;;3.40;1.95;;;12.00;99.90;;;;;;5017886;28;22862;-61
2022/05/03 12:13:31;;;;;;;7.40;2.00;;;11.90;99.90;;;;;;5027678;28;20833;-61
2022/05/03 12:16:11;;;;;;;8.23;2.25;;;11.90;99.90;;;;;;5012548;28;20753;-60
2022/05/03 12:18:40;;;;;;;7.93;2.22;;;11.80;99.90;;;;;;5013202;28;20240;-61
2022/05/03 12:21:09;;;;;;;5.57;2.40;;;11.90;99.90;;;;;;5022133;28;20232;-61
2022/05/03 12:23:43;;;;;;;6.13;2.60;;;11.90;99.90;;;;;;5014005;28;20232;-62
2022/05/03 12:26:25;;;;;;;7.60;2.45;;;11.90;99.90;;;;;;5032877;28;20247;-62
2022/05/03 12:28:54;;;;;;;7.68;2.10;;;11.90;99.90;;;;;;5023308;28;20202;-62
2022/05/03 12:31:22;;;;;;;10.20;2.25;;;12.00;99.90;;;;;;5013608;28;20212;-61
2022/05/03 12:33:52;;;;;;;7.05;3.03;;;12.00;99.90;;;;;;5017526;28;21289;-63
2022/05/03 12:36:30;;;;;;;8.52;2.15;;;11.90;99.90;;;;;;5028876;28;20936;-62
2022/05/03 12:38:58;;;;;;;8.98;2.38;;;11.90;99.90;;;;;;5026974;28;20197;-61
2022/05/03 12:41:28;;;;;;;7.80;2.55;;;11.80;99.90;;;;;;5010108;28;20214;-63
2022/05/03 12:44:03;;;;;;;11.05;2.42;;;12.00;99.90;;;;;;5022499;28;20197;-61
2022/05/03 12:46:31;;;;;;;11.05;2.55;;;11.90;99.90;;;;;;5018845;28;20685;-61
2022/05/03 12:49:01;;;;;;;11.30;2.40;;;11.90;99.90;;;;;;5008078;28;20348;-61
2022/05/03 12:51:28;;;;;;;8.38;2.58;;;11.90;99.90;;;;;;5031804;28;20220;-61
2022/05/03 12:53:55;;;;;;;11.25;2.38;;;11.90;99.90;;;;;;5025204;28;20463;-61
2022/05/03 12:59:07;;;;;;;7.10;2.30;;;12.20;99.90;;;;;;5058407;28;20237;-61
2022/05/03 13:01:35;;;;;;;7.25;2.45;;;12.10;99.90;;;;;;5029724;28;21058;-62
2022/05/03 13:04:02;;;;;;;12.70;2.45;;;12.10;99.90;;;;;;5008588;28;20225;-62
2022/05/03 13:06:29;;;;;;;10.88;2.38;;;12.30;99.90;;;;;;5032912;28;20232;-62
2022/05/03 13:08:56;;;;;;;6.15;2.17;;;12.30;99.90;;;;;;5031552;28;20201;-61
2022/05/03 13:11:23;;;;;;;9.60;2.42;;;12.40;99.90;;;;;;5007283;28;20221;-61
2022/05/03 13:13:51;;;;;;;3.97;1.75;;;12.40;99.90;;;;;;5016832;28;20204;-61
2022/05/03 13:16:19;;;;;;;8.57;2.47;;;12.30;99.90;;;;;;4988182;28;20813;-61
2022/05/03 13:18:46;;;;;;;18.30;3.90;;;12.20;99.90;;;;;;4970693;28;20223;-61
2022/05/03 13:21:13;;;;;;;9.90;2.65;;;12.10;99.90;;;;;;5005009;28;20225;-61
2022/05/03 13:23:40;;;;;;;6.93;2.30;;;12.00;99.90;;;;;;4999705;28;20227;-61
2022/05/03 13:26:07;;;;;;;7.00;2.05;;;12.10;99.90;;;;;;5018552;28;20233;-61
2022/05/03 13:28:34;;;;;;;6.13;2.00;;;12.10;99.90;;;;;;5004658;28;20214;-61
2022/05/03 13:31:01;;;;;;;5.47;2.33;;;12.10;99.90;;;;;;5015662;28;22766;-61
2022/05/03 13:33:31;;;;;;;4.40;2.13;;;12.00;99.90;;;;;;4994332;28;20226;-61
2022/05/03 13:41:27;;;;;;;7.30;2.58;;;11.80;99.90;;;;;;5006143;28;20255;-61
2022/05/03 13:43:54;;;;;;;7.68;2.20;;;11.80;99.90;;;;;;5016274;28;20617;-62
2022/05/03 13:46:21;;;;;;;12.45;2.60;;;11.90;99.90;;;;;;5024287;28;20225;-61
2022/05/03 13:48:49;;;;;;;7.07;2.58;;;11.90;99.90;;;;;;5007876;28;20251;-62
2022/05/03 13:51:18;;;;;;;9.48;2.08;;;11.90;99.90;;;;;;5007497;28;22000;-61
2022/05/03 13:53:45;;;;;;;8.73;2.53;;;11.80;99.90;;;;;;5010523;28;21234;-61
2022/05/03 13:56:14;;;;;;;9.23;2.80;;;11.90;99.90;;;;;;5011183;28;20249;-61